sensor_id;sensor_type;location;lat;lon;timestamp;P1;durP1;ratioP1;P2;durP2;ratioP2
61093;SDS011;46976;52.942;6.810;2022-09-06T00:01:43;8.95;;;4.90;;
61093;SDS011;46976;52.942;6.810;2022-09-06T00:04:09;8.43;;;5.00;;
61093;SDS011;46976;52.942;6.810;2022-09-06T00:06:35;8.07;;;4.90;;
61093;SDS011;46976;52.942;6.810;2022-09-06T00:09:01;8.82;;;4.90;;
61093;SDS011;46976;52.942;6.810;2022-09-06T00:11:27;12.27;;;5.28;;
61093;SDS011;46976;52.942;6.810;2022-09-06T00:13:53;9.52;;;5.30;;
61093;SDS011;46976;52.942;6.810;2022-09-06T00:16:21;8.60;;;5.30;;
61093;SDS011;46976;52.942;6.810;2022-09-06T00:18:47;9.07;;;5.20;;
61093;SDS011;46976;52.942;6.810;2022-09-06T00:21:24;8.68;;;4.80;;
61093;SDS011;46976;52.942;6.810;2022-09-06T00:23:50;8.80;;;4.90;;
61093;SDS011;46976;52.942;6.810;2022-09-06T00:26:17;8.15;;;5.28;;
61093;SDS011;46976;52.942;6.810;2022-09-06T00:28:43;10.57;;;5.47;;
61093;SDS011;46976;52.942;6.810;2022-09-06T00:31:10;8.02;;;5.25;;
61093;SDS011;46976;52.942;6.810;2022-09-06T00:33:36;8.48;;;5.20;;
61093;SDS011;46976;52.942;6.810;2022-09-06T00:36:02;8.20;;;5.22;;
61093;SDS011;46976;52.942;6.810;2022-09-06T00:38:28;9.18;;;5.72;;
61093;SDS011;46976;52.942;6.810;2022-09-06T00:40:54;8.57;;;5.47;;
61093;SDS011;46976;52.942;6.810;2022-09-06T00:43:21;8.27;;;5.40;;
61093;SDS011;46976;52.942;6.810;2022-09-06T00:45:47;7.97;;;5.20;;
61093;SDS011;46976;52.942;6.810;2022-09-06T00:48:13;9.00;;;5.47;;
61093;SDS011;46976;52.942;6.810;2022-09-06T00:50:40;7.78;;;5.35;;
61093;SDS011;46976;52.942;6.810;2022-09-06T00:53:09;8.10;;;5.47;;
61093;SDS011;46976;52.942;6.810;2022-09-06T00:55:35;9.20;;;5.80;;
61093;SDS011;46976;52.942;6.810;2022-09-06T00:58:02;8.27;;;5.65;;
61093;SDS011;46976;52.942;6.810;2022-09-06T01:00:28;9.18;;;5.93;;
61093;SDS011;46976;52.942;6.810;2022-09-06T01:02:54;8.40;;;5.78;;
61093;SDS011;46976;52.942;6.810;2022-09-06T01:05:21;9.95;;;6.13;;
61093;SDS011;46976;52.942;6.810;2022-09-06T01:13:24;8.75;;;6.05;;
61093;SDS011;46976;52.942;6.810;2022-09-06T01:16:01;9.57;;;5.90;;
61093;SDS011;46976;52.942;6.810;2022-09-06T01:28:56;10.23;;;5.60;;
61093;SDS011;46976;52.942;6.810;2022-09-06T01:31:45;10.80;;;6.30;;
61093;SDS011;46976;52.942;6.810;2022-09-06T01:37:11;9.27;;;6.00;;
61093;SDS011;46976;52.942;6.810;2022-09-06T01:39:39;9.63;;;6.13;;
61093;SDS011;46976;52.942;6.810;2022-09-06T01:44:42;11.07;;;6.40;;
61093;SDS011;46976;52.942;6.810;2022-09-06T01:47:16;9.70;;;6.00;;
61093;SDS011;46976;52.942;6.810;2022-09-06T01:52:18;9.90;;;6.55;;
61093;SDS011;46976;52.942;6.810;2022-09-06T02:00:23;8.88;;;6.63;;
61093;SDS011;46976;52.942;6.810;2022-09-06T02:05:26;10.73;;;6.45;;
61093;SDS011;46976;52.942;6.810;2022-09-06T02:07:54;9.13;;;6.20;;
61093;SDS011;46976;52.942;6.810;2022-09-06T02:10:24;8.00;;;5.75;;
61093;SDS011;46976;52.942;6.810;2022-09-06T02:12:52;8.43;;;6.15;;
61093;SDS011;46976;52.942;6.810;2022-09-06T02:15:23;9.32;;;6.60;;
61093;SDS011;46976;52.942;6.810;2022-09-06T02:17:52;9.63;;;6.63;;
61093;SDS011;46976;52.942;6.810;2022-09-06T02:20:24;9.90;;;6.25;;
61093;SDS011;46976;52.942;6.810;2022-09-06T02:25:24;9.43;;;6.35;;
61093;SDS011;46976;52.942;6.810;2022-09-06T02:27:52;8.85;;;6.22;;
61093;SDS011;46976;52.942;6.810;2022-09-06T02:30:18;8.65;;;6.45;;
61093;SDS011;46976;52.942;6.810;2022-09-06T02:32:57;10.25;;;6.88;;
61093;SDS011;46976;52.942;6.810;2022-09-06T02:35:25;9.88;;;7.22;;
61093;SDS011;46976;52.942;6.810;2022-09-06T02:37:51;10.75;;;6.65;;
61093;SDS011;46976;52.942;6.810;2022-09-06T02:40:18;10.00;;;7.18;;
61093;SDS011;46976;52.942;6.810;2022-09-06T02:42:44;11.98;;;7.55;;
61093;SDS011;46976;52.942;6.810;2022-09-06T02:45:10;9.52;;;7.10;;
61093;SDS011;46976;52.942;6.810;2022-09-06T02:47:36;9.68;;;6.45;;
61093;SDS011;46976;52.942;6.810;2022-09-06T02:50:03;10.85;;;7.00;;
61093;SDS011;46976;52.942;6.810;2022-09-06T02:52:29;11.52;;;6.68;;
61093;SDS011;46976;52.942;6.810;2022-09-06T02:54:55;9.15;;;6.90;;
61093;SDS011;46976;52.942;6.810;2022-09-06T02:57:21;8.70;;;6.57;;
61093;SDS011;46976;52.942;6.810;2022-09-06T02:59:47;9.20;;;7.00;;
61093;SDS011;46976;52.942;6.810;2022-09-06T03:02:13;11.55;;;6.68;;
61093;SDS011;46976;52.942;6.810;2022-09-06T03:04:39;10.68;;;6.65;;
61093;SDS011;46976;52.942;6.810;2022-09-06T03:07:05;9.55;;;6.80;;
61093;SDS011;46976;52.942;6.810;2022-09-06T03:09:31;9.32;;;7.00;;
61093;SDS011;46976;52.942;6.810;2022-09-06T03:11:58;10.25;;;7.63;;
61093;SDS011;46976;52.942;6.810;2022-09-06T03:14:24;10.68;;;7.63;;
61093;SDS011;46976;52.942;6.810;2022-09-06T03:16:50;11.77;;;7.90;;
61093;SDS011;46976;52.942;6.810;2022-09-06T03:19:16;9.88;;;7.28;;
61093;SDS011;46976;52.942;6.810;2022-09-06T03:21:44;10.60;;;7.15;;
61093;SDS011;46976;52.942;6.810;2022-09-06T03:24:10;9.50;;;7.10;;
61093;SDS011;46976;52.942;6.810;2022-09-06T03:26:36;9.30;;;7.18;;
61093;SDS011;46976;52.942;6.810;2022-09-06T03:29:02;8.95;;;7.30;;
61093;SDS011;46976;52.942;6.810;2022-09-06T03:31:28;10.85;;;7.95;;
61093;SDS011;46976;52.942;6.810;2022-09-06T03:33:54;10.10;;;7.43;;
61093;SDS011;46976;52.942;6.810;2022-09-06T03:36:20;10.30;;;7.22;;
61093;SDS011;46976;52.942;6.810;2022-09-06T03:38:46;9.95;;;7.70;;
61093;SDS011;46976;52.942;6.810;2022-09-06T03:41:12;10.18;;;7.82;;
61093;SDS011;46976;52.942;6.810;2022-09-06T03:43:38;11.13;;;7.60;;
61093;SDS011;46976;52.942;6.810;2022-09-06T03:46:04;10.60;;;7.68;;
61093;SDS011;46976;52.942;6.810;2022-09-06T03:48:30;10.02;;;7.45;;
61093;SDS011;46976;52.942;6.810;2022-09-06T03:50:57;10.45;;;7.43;;
61093;SDS011;46976;52.942;6.810;2022-09-06T03:53:23;9.25;;;7.35;;
61093;SDS011;46976;52.942;6.810;2022-09-06T03:55:51;13.00;;;7.30;;
61093;SDS011;46976;52.942;6.810;2022-09-06T03:58:18;9.52;;;7.85;;
61093;SDS011;46976;52.942;6.810;2022-09-06T04:00:44;10.00;;;7.80;;
61093;SDS011;46976;52.942;6.810;2022-09-06T04:03:11;10.50;;;7.63;;
61093;SDS011;46976;52.942;6.810;2022-09-06T04:05:37;9.85;;;8.23;;
61093;SDS011;46976;52.942;6.810;2022-09-06T04:08:03;9.68;;;8.25;;
61093;SDS011;46976;52.942;6.810;2022-09-06T04:10:30;11.82;;;8.10;;
61093;SDS011;46976;52.942;6.810;2022-09-06T04:12:56;10.40;;;8.30;;
61093;SDS011;46976;52.942;6.810;2022-09-06T04:15:22;10.30;;;7.90;;
61093;SDS011;46976;52.942;6.810;2022-09-06T04:17:48;10.70;;;8.63;;
61093;SDS011;46976;52.942;6.810;2022-09-06T04:20:14;11.40;;;8.60;;
61093;SDS011;46976;52.942;6.810;2022-09-06T04:22:41;11.20;;;8.05;;
61093;SDS011;46976;52.942;6.810;2022-09-06T04:25:07;13.40;;;8.75;;
61093;SDS011;46976;52.942;6.810;2022-09-06T04:27:33;11.45;;;8.07;;
61093;SDS011;46976;52.942;6.810;2022-09-06T04:29:59;11.52;;;8.25;;
61093;SDS011;46976;52.942;6.810;2022-09-06T04:32:25;12.68;;;8.50;;
61093;SDS011;46976;52.942;6.810;2022-09-06T04:34:52;12.38;;;8.32;;
61093;SDS011;46976;52.942;6.810;2022-09-06T04:37:18;13.82;;;8.30;;
61093;SDS011;46976;52.942;6.810;2022-09-06T04:39:44;12.13;;;8.38;;
61093;SDS011;46976;52.942;6.810;2022-09-06T04:42:10;14.15;;;8.57;;
61093;SDS011;46976;52.942;6.810;2022-09-06T04:44:37;12.02;;;8.18;;
61093;SDS011;46976;52.942;6.810;2022-09-06T04:47:06;10.68;;;8.20;;
61093;SDS011;46976;52.942;6.810;2022-09-06T04:49:34;9.93;;;8.35;;
61093;SDS011;46976;52.942;6.810;2022-09-06T04:52:00;9.82;;;8.13;;
61093;SDS011;46976;52.942;6.810;2022-09-06T04:54:26;11.20;;;8.40;;
61093;SDS011;46976;52.942;6.810;2022-09-06T04:56:52;10.73;;;8.98;;
61093;SDS011;46976;52.942;6.810;2022-09-06T04:59:18;10.25;;;8.38;;
61093;SDS011;46976;52.942;6.810;2022-09-06T05:01:44;13.93;;;8.43;;
61093;SDS011;46976;52.942;6.810;2022-09-06T05:04:10;10.45;;;8.20;;
61093;SDS011;46976;52.942;6.810;2022-09-06T05:06:36;10.55;;;8.57;;
61093;SDS011;46976;52.942;6.810;2022-09-06T05:09:04;12.27;;;9.05;;
61093;SDS011;46976;52.942;6.810;2022-09-06T05:11:30;14.10;;;9.52;;
61093;SDS011;46976;52.942;6.810;2022-09-06T05:13:56;13.30;;;9.15;;
61093;SDS011;46976;52.942;6.810;2022-09-06T05:16:22;12.68;;;8.40;;
61093;SDS011;46976;52.942;6.810;2022-09-06T05:18:48;13.82;;;8.93;;
61093;SDS011;46976;52.942;6.810;2022-09-06T05:21:14;12.75;;;8.82;;
61093;SDS011;46976;52.942;6.810;2022-09-06T05:23:40;12.20;;;9.13;;
61093;SDS011;46976;52.942;6.810;2022-09-06T05:26:07;13.88;;;9.88;;
61093;SDS011;46976;52.942;6.810;2022-09-06T05:28:33;11.75;;;9.93;;
61093;SDS011;46976;52.942;6.810;2022-09-06T05:31:06;11.95;;;10.65;;
61093;SDS011;46976;52.942;6.810;2022-09-06T05:33:32;12.95;;;10.55;;
61093;SDS011;46976;52.942;6.810;2022-09-06T05:35:58;14.15;;;10.68;;
61093;SDS011;46976;52.942;6.810;2022-09-06T05:38:24;11.55;;;10.30;;
61093;SDS011;46976;52.942;6.810;2022-09-06T05:40:50;12.55;;;11.13;;
61093;SDS011;46976;52.942;6.810;2022-09-06T05:43:16;13.00;;;11.70;;
61093;SDS011;46976;52.942;6.810;2022-09-06T05:45:42;13.93;;;12.45;;
61093;SDS011;46976;52.942;6.810;2022-09-06T05:48:09;15.18;;;12.63;;
61093;SDS011;46976;52.942;6.810;2022-09-06T05:50:35;13.43;;;12.10;;
61093;SDS011;46976;52.942;6.810;2022-09-06T05:53:01;15.43;;;12.52;;
61093;SDS011;46976;52.942;6.810;2022-09-06T05:55:27;14.88;;;13.27;;
61093;SDS011;46976;52.942;6.810;2022-09-06T05:57:53;15.45;;;13.18;;
61093;SDS011;46976;52.942;6.810;2022-09-06T06:00:20;14.95;;;13.45;;
61093;SDS011;46976;52.942;6.810;2022-09-06T06:02:46;15.15;;;13.68;;
61093;SDS011;46976;52.942;6.810;2022-09-06T06:05:13;16.20;;;14.60;;
61093;SDS011;46976;52.942;6.810;2022-09-06T06:07:39;16.60;;;14.95;;
61093;SDS011;46976;52.942;6.810;2022-09-06T06:10:05;17.23;;;15.48;;
61093;SDS011;46976;52.942;6.810;2022-09-06T06:12:31;17.55;;;15.82;;
61093;SDS011;46976;52.942;6.810;2022-09-06T06:14:57;17.45;;;15.50;;
61093;SDS011;46976;52.942;6.810;2022-09-06T06:17:23;18.27;;;16.58;;
61093;SDS011;46976;52.942;6.810;2022-09-06T06:19:49;18.38;;;16.60;;
61093;SDS011;46976;52.942;6.810;2022-09-06T06:22:16;17.38;;;15.68;;
61093;SDS011;46976;52.942;6.810;2022-09-06T06:24:42;18.27;;;16.58;;
61093;SDS011;46976;52.942;6.810;2022-09-06T06:27:08;18.25;;;16.42;;
61093;SDS011;46976;52.942;6.810;2022-09-06T06:29:34;18.02;;;16.33;;
61093;SDS011;46976;52.942;6.810;2022-09-06T06:32:00;20.02;;;18.20;;
61093;SDS011;46976;52.942;6.810;2022-09-06T06:34:26;18.65;;;16.95;;
61093;SDS011;46976;52.942;6.810;2022-09-06T06:36:52;18.50;;;16.60;;
61093;SDS011;46976;52.942;6.810;2022-09-06T06:39:18;19.40;;;17.60;;
61093;SDS011;46976;52.942;6.810;2022-09-06T06:41:44;17.90;;;15.95;;
61093;SDS011;46976;52.942;6.810;2022-09-06T06:44:11;17.75;;;15.85;;
61093;SDS011;46976;52.942;6.810;2022-09-06T06:46:37;17.35;;;15.73;;
61093;SDS011;46976;52.942;6.810;2022-09-06T06:49:05;18.00;;;16.20;;
61093;SDS011;46976;52.942;6.810;2022-09-06T06:51:32;17.42;;;15.30;;
61093;SDS011;46976;52.942;6.810;2022-09-06T06:54:01;17.05;;;15.20;;
61093;SDS011;46976;52.942;6.810;2022-09-06T06:56:31;16.48;;;14.88;;
61093;SDS011;46976;52.942;6.810;2022-09-06T06:58:58;17.13;;;15.07;;
61093;SDS011;46976;52.942;6.810;2022-09-06T07:01:25;16.67;;;14.98;;
61093;SDS011;46976;52.942;6.810;2022-09-06T07:03:51;16.75;;;15.05;;
61093;SDS011;46976;52.942;6.810;2022-09-06T07:06:18;17.60;;;15.82;;
61093;SDS011;46976;52.942;6.810;2022-09-06T07:08:45;16.55;;;14.85;;
61093;SDS011;46976;52.942;6.810;2022-09-06T07:11:11;17.67;;;15.98;;
61093;SDS011;46976;52.942;6.810;2022-09-06T07:13:38;16.90;;;15.25;;
61093;SDS011;46976;52.942;6.810;2022-09-06T07:18:34;16.63;;;15.00;;
61093;SDS011;46976;52.942;6.810;2022-09-06T07:21:01;16.75;;;15.05;;
61093;SDS011;46976;52.942;6.810;2022-09-06T07:23:27;17.00;;;15.30;;
61093;SDS011;46976;52.942;6.810;2022-09-06T07:25:53;18.02;;;16.15;;
61093;SDS011;46976;52.942;6.810;2022-09-06T07:28:19;18.13;;;16.38;;
61093;SDS011;46976;52.942;6.810;2022-09-06T07:30:47;17.50;;;15.77;;
61093;SDS011;46976;52.942;6.810;2022-09-06T07:33:13;19.42;;;17.42;;
61093;SDS011;46976;52.942;6.810;2022-09-06T07:35:39;19.17;;;17.17;;
61093;SDS011;46976;52.942;6.810;2022-09-06T07:38:05;18.58;;;16.88;;
61093;SDS011;46976;52.942;6.810;2022-09-06T07:40:31;17.23;;;15.65;;
61093;SDS011;46976;52.942;6.810;2022-09-06T07:42:58;18.13;;;16.42;;
61093;SDS011;46976;52.942;6.810;2022-09-06T07:45:24;18.92;;;17.00;;
61093;SDS011;46976;52.942;6.810;2022-09-06T07:47:56;18.40;;;16.75;;
61093;SDS011;46976;52.942;6.810;2022-09-06T07:50:27;18.45;;;16.75;;
61093;SDS011;46976;52.942;6.810;2022-09-06T07:52:54;17.88;;;16.17;;
61093;SDS011;46976;52.942;6.810;2022-09-06T07:55:21;18.85;;;17.05;;
61093;SDS011;46976;52.942;6.810;2022-09-06T07:57:47;18.67;;;16.75;;
61093;SDS011;46976;52.942;6.810;2022-09-06T08:00:13;18.55;;;16.75;;
61093;SDS011;46976;52.942;6.810;2022-09-06T08:02:39;17.77;;;16.15;;
61093;SDS011;46976;52.942;6.810;2022-09-06T08:05:05;18.85;;;17.05;;
61093;SDS011;46976;52.942;6.810;2022-09-06T08:07:31;18.90;;;16.80;;
61093;SDS011;46976;52.942;6.810;2022-09-06T08:09:57;19.77;;;17.88;;
61093;SDS011;46976;52.942;6.810;2022-09-06T08:12:23;18.15;;;16.35;;
61093;SDS011;46976;52.942;6.810;2022-09-06T08:14:51;18.75;;;17.05;;
61093;SDS011;46976;52.942;6.810;2022-09-06T08:17:17;17.88;;;16.08;;
61093;SDS011;46976;52.942;6.810;2022-09-06T08:19:44;17.23;;;15.52;;
61093;SDS011;46976;52.942;6.810;2022-09-06T08:22:10;18.70;;;16.17;;
61093;SDS011;46976;52.942;6.810;2022-09-06T08:24:36;16.75;;;15.05;;
61093;SDS011;46976;52.942;6.810;2022-09-06T08:27:02;16.75;;;15.00;;
61093;SDS011;46976;52.942;6.810;2022-09-06T08:29:31;15.77;;;14.13;;
61093;SDS011;46976;52.942;6.810;2022-09-06T08:31:57;15.30;;;13.88;;
61093;SDS011;46976;52.942;6.810;2022-09-06T08:34:23;15.32;;;13.82;;
61093;SDS011;46976;52.942;6.810;2022-09-06T08:36:50;15.57;;;14.07;;
61093;SDS011;46976;52.942;6.810;2022-09-06T08:39:16;15.65;;;14.15;;
61093;SDS011;46976;52.942;6.810;2022-09-06T08:41:47;14.95;;;13.35;;
61093;SDS011;46976;52.942;6.810;2022-09-06T08:44:21;14.38;;;12.98;;
61093;SDS011;46976;52.942;6.810;2022-09-06T08:46:53;14.45;;;13.00;;
61093;SDS011;46976;52.942;6.810;2022-09-06T08:49:20;15.15;;;13.00;;
61093;SDS011;46976;52.942;6.810;2022-09-06T08:54:20;14.27;;;12.73;;
61093;SDS011;46976;52.942;6.810;2022-09-06T08:57:03;15.93;;;13.32;;
61093;SDS011;46976;52.942;6.810;2022-09-06T08:59:37;14.00;;;11.75;;
61093;SDS011;46976;52.942;6.810;2022-09-06T09:04:42;13.18;;;11.77;;
61093;SDS011;46976;52.942;6.810;2022-09-06T09:09:53;12.60;;;11.02;;
61093;SDS011;46976;52.942;6.810;2022-09-06T09:12:21;12.30;;;10.43;;
61093;SDS011;46976;52.942;6.810;2022-09-06T09:15:00;13.27;;;10.43;;
61093;SDS011;46976;52.942;6.810;2022-09-06T09:17:28;12.07;;;10.88;;
61093;SDS011;46976;52.942;6.810;2022-09-06T09:19:54;12.77;;;10.05;;
61093;SDS011;46976;52.942;6.810;2022-09-06T09:22:20;11.93;;;10.60;;
61093;SDS011;46976;52.942;6.810;2022-09-06T09:24:48;13.83;;;10.30;;
61093;SDS011;46976;52.942;6.810;2022-09-06T09:27:17;12.98;;;10.40;;
61093;SDS011;46976;52.942;6.810;2022-09-06T09:32:28;13.65;;;10.60;;
61093;SDS011;46976;52.942;6.810;2022-09-06T09:34:55;12.23;;;10.38;;
61093;SDS011;46976;52.942;6.810;2022-09-06T09:37:39;12.57;;;10.25;;
61093;SDS011;46976;52.942;6.810;2022-09-06T09:40:12;13.13;;;10.52;;
61093;SDS011;46976;52.942;6.810;2022-09-06T09:42:39;12.38;;;9.68;;
61093;SDS011;46976;52.942;6.810;2022-09-06T09:45:27;12.10;;;9.88;;
61093;SDS011;46976;52.942;6.810;2022-09-06T09:47:51;11.20;;;9.43;;
61093;SDS011;46976;52.942;6.810;2022-09-06T09:50:21;9.90;;;8.60;;
61093;SDS011;46976;52.942;6.810;2022-09-06T09:52:48;11.80;;;9.38;;
61093;SDS011;46976;52.942;6.810;2022-09-06T09:55:14;10.07;;;8.57;;
61093;SDS011;46976;52.942;6.810;2022-09-06T09:57:46;11.60;;;9.48;;
61093;SDS011;46976;52.942;6.810;2022-09-06T10:00:14;12.73;;;9.10;;
61093;SDS011;46976;52.942;6.810;2022-09-06T10:02:56;12.35;;;10.02;;
61093;SDS011;46976;52.942;6.810;2022-09-06T10:05:22;12.00;;;9.13;;
61093;SDS011;46976;52.942;6.810;2022-09-06T10:07:55;10.85;;;9.27;;
61093;SDS011;46976;52.942;6.810;2022-09-06T10:12:48;12.35;;;8.38;;
61093;SDS011;46976;52.942;6.810;2022-09-06T10:15:31;11.13;;;8.68;;
61093;SDS011;46976;52.942;6.810;2022-09-06T10:17:57;13.57;;;8.52;;
61093;SDS011;46976;52.942;6.810;2022-09-06T10:20:34;10.82;;;7.82;;
61093;SDS011;46976;52.942;6.810;2022-09-06T10:23:07;11.55;;;8.18;;
61093;SDS011;46976;52.942;6.810;2022-09-06T10:30:28;10.52;;;7.55;;
61093;SDS011;46976;52.942;6.810;2022-09-06T10:32:57;12.05;;;7.30;;
61093;SDS011;46976;52.942;6.810;2022-09-06T10:35:31;8.98;;;6.72;;
61093;SDS011;46976;52.942;6.810;2022-09-06T10:43:04;9.40;;;6.97;;
61093;SDS011;46976;52.942;6.810;2022-09-06T10:48:08;9.18;;;5.78;;
61093;SDS011;46976;52.942;6.810;2022-09-06T10:55:56;8.70;;;6.60;;
61093;SDS011;46976;52.942;6.810;2022-09-06T10:58:27;10.02;;;5.80;;
61093;SDS011;46976;52.942;6.810;2022-09-06T11:00:53;8.15;;;5.78;;
61093;SDS011;46976;52.942;6.810;2022-09-06T11:05:47;8.55;;;5.28;;
61093;SDS011;46976;52.942;6.810;2022-09-06T11:08:20;9.05;;;5.20;;
61093;SDS011;46976;52.942;6.810;2022-09-06T11:10:47;8.52;;;4.68;;
61093;SDS011;46976;52.942;6.810;2022-09-06T11:13:15;8.30;;;4.60;;
61093;SDS011;46976;52.942;6.810;2022-09-06T11:18:31;7.57;;;4.05;;
61093;SDS011;46976;52.942;6.810;2022-09-06T11:28:47;8.13;;;4.65;;
61093;SDS011;46976;52.942;6.810;2022-09-06T11:31:20;7.78;;;5.25;;
61093;SDS011;46976;52.942;6.810;2022-09-06T11:33:48;10.43;;;5.30;;
61093;SDS011;46976;52.942;6.810;2022-09-06T11:38:59;8.68;;;4.90;;
61093;SDS011;46976;52.942;6.810;2022-09-06T11:43:52;7.10;;;4.40;;
61093;SDS011;46976;52.942;6.810;2022-09-06T11:49:00;7.10;;;4.93;;
61093;SDS011;46976;52.942;6.810;2022-09-06T11:56:28;6.47;;;3.40;;
61093;SDS011;46976;52.942;6.810;2022-09-06T11:59:00;7.35;;;4.20;;
61093;SDS011;46976;52.942;6.810;2022-09-06T12:06:21;7.32;;;4.10;;
61093;SDS011;46976;52.942;6.810;2022-09-06T12:08:49;7.82;;;4.00;;
61093;SDS011;46976;52.942;6.810;2022-09-06T12:11:32;5.90;;;3.58;;
61093;SDS011;46976;52.942;6.810;2022-09-06T12:14:06;7.07;;;3.78;;
61093;SDS011;46976;52.942;6.810;2022-09-06T12:22:36;6.60;;;4.00;;
61093;SDS011;46976;52.942;6.810;2022-09-06T12:24:50;7.17;;;3.70;;
61093;SDS011;46976;52.942;6.810;2022-09-06T12:27:17;5.55;;;3.10;;
61093;SDS011;46976;52.942;6.810;2022-09-06T12:29:50;6.30;;;3.20;;
61093;SDS011;46976;52.942;6.810;2022-09-06T12:32:20;5.38;;;2.95;;
61093;SDS011;46976;52.942;6.810;2022-09-06T12:34:47;7.30;;;3.10;;
61093;SDS011;46976;52.942;6.810;2022-09-06T12:37:13;5.88;;;3.53;;
61093;SDS011;46976;52.942;6.810;2022-09-06T12:39:39;7.05;;;3.15;;
61093;SDS011;46976;52.942;6.810;2022-09-06T12:42:21;9.88;;;3.60;;
61093;SDS011;46976;52.942;6.810;2022-09-06T12:44:47;7.53;;;3.20;;
61093;SDS011;46976;52.942;6.810;2022-09-06T12:49:42;4.97;;;2.70;;
61093;SDS011;46976;52.942;6.810;2022-09-06T12:52:09;6.80;;;2.70;;
61093;SDS011;46976;52.942;6.810;2022-09-06T12:54:47;5.88;;;3.05;;
61093;SDS011;46976;52.942;6.810;2022-09-06T12:57:16;6.05;;;2.97;;
61093;SDS011;46976;52.942;6.810;2022-09-06T12:59:55;4.70;;;2.45;;
61093;SDS011;46976;52.942;6.810;2022-09-06T13:02:36;5.40;;;2.40;;
61093;SDS011;46976;52.942;6.810;2022-09-06T13:05:07;4.05;;;2.50;;
61093;SDS011;46976;52.942;6.810;2022-09-06T13:07:38;4.13;;;2.70;;
61093;SDS011;46976;52.942;6.810;2022-09-06T13:10:04;5.40;;;2.60;;
61093;SDS011;46976;52.942;6.810;2022-09-06T13:12:32;5.80;;;2.60;;
61093;SDS011;46976;52.942;6.810;2022-09-06T13:17:28;4.87;;;2.97;;
61093;SDS011;46976;52.942;6.810;2022-09-06T13:19:54;6.18;;;2.72;;
61093;SDS011;46976;52.942;6.810;2022-09-06T13:25:13;6.47;;;3.22;;
61093;SDS011;46976;52.942;6.810;2022-09-06T13:27:41;7.32;;;3.15;;
61093;SDS011;46976;52.942;6.810;2022-09-06T13:30:19;6.78;;;3.28;;
61093;SDS011;46976;52.942;6.810;2022-09-06T13:32:53;6.40;;;3.20;;
61093;SDS011;46976;52.942;6.810;2022-09-06T13:35:27;6.35;;;3.33;;
61093;SDS011;46976;52.942;6.810;2022-09-06T13:40:39;5.88;;;3.50;;
61093;SDS011;46976;52.942;6.810;2022-09-06T13:43:10;6.50;;;3.20;;
61093;SDS011;46976;52.942;6.810;2022-09-06T13:45:37;6.97;;;3.72;;
61093;SDS011;46976;52.942;6.810;2022-09-06T13:48:03;5.65;;;3.60;;
61093;SDS011;46976;52.942;6.810;2022-09-06T13:50:30;6.20;;;3.70;;
61093;SDS011;46976;52.942;6.810;2022-09-06T13:52:56;8.32;;;3.78;;
61093;SDS011;46976;52.942;6.810;2022-09-06T13:55:23;7.20;;;3.67;;
61093;SDS011;46976;52.942;6.810;2022-09-06T13:57:52;8.65;;;4.07;;
61093;SDS011;46976;52.942;6.810;2022-09-06T14:00:18;6.80;;;3.60;;
61093;SDS011;46976;52.942;6.810;2022-09-06T14:02:45;6.70;;;3.30;;
61093;SDS011;46976;52.942;6.810;2022-09-06T14:05:12;7.13;;;3.33;;
61093;SDS011;46976;52.942;6.810;2022-09-06T14:07:38;5.83;;;3.20;;
61093;SDS011;46976;52.942;6.810;2022-09-06T14:10:04;5.85;;;3.20;;
61093;SDS011;46976;52.942;6.810;2022-09-06T14:12:31;6.00;;;3.60;;
61093;SDS011;46976;52.942;6.810;2022-09-06T14:15:00;6.60;;;3.30;;
61093;SDS011;46976;52.942;6.810;2022-09-06T14:17:26;5.80;;;3.10;;
61093;SDS011;46976;52.942;6.810;2022-09-06T14:19:53;5.53;;;3.17;;
61093;SDS011;46976;52.942;6.810;2022-09-06T14:22:19;7.22;;;3.60;;
61093;SDS011;46976;52.942;6.810;2022-09-06T14:24:45;6.20;;;2.80;;
61093;SDS011;46976;52.942;6.810;2022-09-06T14:27:12;4.93;;;2.50;;
61093;SDS011;46976;52.942;6.810;2022-09-06T14:29:38;5.93;;;2.33;;
61093;SDS011;46976;52.942;6.810;2022-09-06T14:32:04;6.78;;;2.50;;
61093;SDS011;46976;52.942;6.810;2022-09-06T14:34:31;4.70;;;2.85;;
61093;SDS011;46976;52.942;6.810;2022-09-06T14:36:57;5.28;;;2.70;;
61093;SDS011;46976;52.942;6.810;2022-09-06T14:39:23;5.28;;;2.88;;
61093;SDS011;46976;52.942;6.810;2022-09-06T14:41:49;4.47;;;2.60;;
61093;SDS011;46976;52.942;6.810;2022-09-06T14:44:16;5.77;;;2.27;;
61093;SDS011;46976;52.942;6.810;2022-09-06T14:46:42;4.47;;;2.25;;
61093;SDS011;46976;52.942;6.810;2022-09-06T14:49:08;4.95;;;2.15;;
61093;SDS011;46976;52.942;6.810;2022-09-06T14:51:35;4.67;;;2.20;;
61093;SDS011;46976;52.942;6.810;2022-09-06T14:54:03;6.63;;;2.35;;
61093;SDS011;46976;52.942;6.810;2022-09-06T14:56:30;4.63;;;2.20;;
61093;SDS011;46976;52.942;6.810;2022-09-06T14:58:56;6.00;;;2.30;;
61093;SDS011;46976;52.942;6.810;2022-09-06T15:01:24;4.95;;;2.22;;
61093;SDS011;46976;52.942;6.810;2022-09-06T15:03:55;4.60;;;2.20;;
61093;SDS011;46976;52.942;6.810;2022-09-06T15:06:21;5.40;;;2.50;;
61093;SDS011;46976;52.942;6.810;2022-09-06T15:08:48;4.70;;;2.35;;
61093;SDS011;46976;52.942;6.810;2022-09-06T15:13:58;5.07;;;2.10;;
61093;SDS011;46976;52.942;6.810;2022-09-06T15:16:25;6.40;;;2.33;;
61093;SDS011;46976;52.942;6.810;2022-09-06T15:18:52;5.50;;;2.30;;
61093;SDS011;46976;52.942;6.810;2022-09-06T15:21:18;7.10;;;2.33;;
61093;SDS011;46976;52.942;6.810;2022-09-06T15:23:44;6.18;;;2.38;;
61093;SDS011;46976;52.942;6.810;2022-09-06T15:26:11;6.80;;;2.42;;
61093;SDS011;46976;52.942;6.810;2022-09-06T15:28:38;6.10;;;2.50;;
61093;SDS011;46976;52.942;6.810;2022-09-06T15:31:05;5.72;;;2.70;;
61093;SDS011;46976;52.942;6.810;2022-09-06T15:33:32;6.53;;;2.50;;
61093;SDS011;46976;52.942;6.810;2022-09-06T15:35:58;5.37;;;2.50;;
61093;SDS011;46976;52.942;6.810;2022-09-06T15:38:30;6.10;;;2.55;;
61093;SDS011;46976;52.942;6.810;2022-09-06T15:41:04;5.40;;;2.40;;
61093;SDS011;46976;52.942;6.810;2022-09-06T15:43:31;4.80;;;2.20;;
61093;SDS011;46976;52.942;6.810;2022-09-06T15:45:57;6.72;;;2.47;;
61093;SDS011;46976;52.942;6.810;2022-09-06T15:48:25;5.82;;;2.47;;
61093;SDS011;46976;52.942;6.810;2022-09-06T15:50:51;8.27;;;2.67;;
61093;SDS011;46976;52.942;6.810;2022-09-06T15:53:17;6.05;;;2.33;;
61093;SDS011;46976;52.942;6.810;2022-09-06T15:55:43;7.00;;;2.65;;
61093;SDS011;46976;52.942;6.810;2022-09-06T15:58:22;6.72;;;2.50;;
61093;SDS011;46976;52.942;6.810;2022-09-06T16:01:02;6.43;;;2.83;;
61093;SDS011;46976;52.942;6.810;2022-09-06T16:03:28;7.43;;;2.50;;
61093;SDS011;46976;52.942;6.810;2022-09-06T16:06:02;5.35;;;2.53;;
61093;SDS011;46976;52.942;6.810;2022-09-06T16:08:30;4.88;;;2.42;;
61093;SDS011;46976;52.942;6.810;2022-09-06T16:10:56;4.97;;;2.47;;
61093;SDS011;46976;52.942;6.810;2022-09-06T16:13:23;6.07;;;2.30;;
61093;SDS011;46976;52.942;6.810;2022-09-06T16:15:59;5.45;;;2.40;;
61093;SDS011;46976;52.942;6.810;2022-09-06T16:18:25;4.75;;;2.40;;
61093;SDS011;46976;52.942;6.810;2022-09-06T16:20:51;7.18;;;2.70;;
61093;SDS011;46976;52.942;6.810;2022-09-06T16:23:18;6.03;;;2.60;;
61093;SDS011;46976;52.942;6.810;2022-09-06T16:25:47;5.53;;;2.60;;
61093;SDS011;46976;52.942;6.810;2022-09-06T16:28:16;5.72;;;2.58;;
61093;SDS011;46976;52.942;6.810;2022-09-06T16:30:42;6.25;;;2.60;;
61093;SDS011;46976;52.942;6.810;2022-09-06T16:33:09;4.45;;;2.30;;
61093;SDS011;46976;52.942;6.810;2022-09-06T16:35:39;4.63;;;2.43;;
61093;SDS011;46976;52.942;6.810;2022-09-06T16:38:05;4.70;;;2.40;;
61093;SDS011;46976;52.942;6.810;2022-09-06T16:40:32;5.32;;;2.47;;